createdAt,value
2022-10-30T00:02:16.299Z,16.46
2022-10-30T00:08:36.173Z,16.46
2022-10-30T00:14:59.180Z,16.47
2022-10-30T00:21:19.169Z,16.46
2022-10-30T00:27:42.212Z,16.45
2022-10-30T00:34:02.215Z,16.41
2022-10-30T00:40:25.137Z,16.33
2022-10-30T00:46:45.214Z,16.29
2022-10-30T00:53:08.199Z,16.23
2022-10-30T00:59:28.175Z,16.23
2022-10-30T01:05:51.196Z,16.2
2022-10-30T01:12:11.188Z,16.15
2022-10-30T01:18:34.181Z,16.1
2022-10-30T01:24:54.179Z,16.03
2022-10-30T01:31:17.217Z,15.93
2022-10-30T01:37:37.180Z,15.85
2022-10-30T01:44:00.152Z,15.76
2022-10-30T01:50:20.200Z,15.69
2022-10-30T01:56:43.199Z,15.66
2022-10-30T02:03:03.150Z,15.61
2022-10-30T02:09:26.269Z,15.59
2022-10-30T02:15:46.141Z,15.6
2022-10-30T02:22:09.273Z,15.56
2022-10-30T02:28:29.196Z,15.53
2022-10-30T02:34:52.149Z,15.46
2022-10-30T02:41:12.178Z,15.39
2022-10-30T02:47:35.167Z,15.32
2022-10-30T02:53:55.158Z,15.25
2022-10-30T03:00:18.166Z,15.19
2022-10-30T03:06:38.209Z,15.13
2022-10-30T03:13:01.181Z,15.09
2022-10-30T03:19:21.141Z,14.96
2022-10-30T03:25:44.251Z,14.83
2022-10-30T03:32:04.160Z,14.71
2022-10-30T03:38:27.153Z,14.6
2022-10-30T04:01:32.870Z,14.3
2022-10-30T04:07:52.144Z,14.22
2022-10-30T04:14:15.212Z,14.14
2022-10-30T04:20:35.183Z,14.08
2022-10-30T04:26:58.200Z,14.01
2022-10-30T04:33:18.164Z,13.91
2022-10-30T04:39:43.765Z,13.83
2022-10-30T04:46:01.192Z,13.75
2022-10-30T04:52:24.161Z,13.65
2022-10-30T04:58:44.204Z,13.58
2022-10-30T05:05:07.145Z,13.5
2022-10-30T05:11:27.164Z,13.44
2022-10-30T05:17:50.197Z,13.42
2022-10-30T05:24:10.149Z,13.39
2022-10-30T05:30:33.190Z,13.37
2022-10-30T05:36:53.236Z,13.31
2022-10-30T05:43:16.193Z,13.23
2022-10-30T05:49:36.196Z,13.17
2022-10-30T05:55:59.186Z,13.12
2022-10-30T06:02:19.206Z,13.05
2022-10-30T06:08:42.210Z,12.97
2022-10-30T06:15:02.176Z,12.89
2022-10-30T06:21:25.263Z,12.8
2022-10-30T06:27:45.165Z,12.73
2022-10-30T06:34:08.210Z,12.7
2022-10-30T06:40:28.257Z,12.72
2022-10-30T06:46:51.186Z,12.71
2022-10-30T06:53:11.245Z,12.69
2022-10-30T06:59:34.141Z,12.73
2022-10-30T07:05:54.167Z,12.76
2022-10-30T07:12:17.234Z,12.82
2022-10-30T07:18:37.184Z,12.92
2022-10-30T07:25:00.217Z,13.02
2022-10-30T07:31:24.196Z,13.16
2022-10-30T07:37:43.224Z,13.32
2022-10-30T07:44:03.177Z,13.48
2022-10-30T07:50:26.198Z,13.68
2022-10-30T07:56:46.190Z,13.86
2022-10-30T08:03:09.209Z,14.05
2022-10-30T08:09:29.191Z,14.24
2022-10-30T08:15:52.210Z,14.43
2022-10-30T08:22:12.179Z,14.63
2022-10-30T08:28:35.210Z,14.83
2022-10-30T08:34:55.165Z,15.05
2022-10-30T08:41:18.239Z,15.29
2022-10-30T08:47:38.378Z,15.54
2022-10-30T08:54:01.157Z,15.82
2022-10-30T09:00:21.187Z,16.05
2022-10-30T09:16:49.134Z,16.55
2022-10-30T09:23:09.163Z,16.84
2022-10-30T09:29:32.165Z,17.15
2022-10-30T09:35:52.204Z,17.47
2022-10-30T09:42:15.168Z,17.81
2022-10-30T09:48:35.180Z,18.14
2022-10-30T09:54:58.187Z,18.47
2022-10-30T10:01:18.267Z,18.77
2022-10-30T10:07:41.188Z,19.07
2022-10-30T10:14:01.178Z,19.39
2022-10-30T10:20:24.175Z,19.74
2022-10-30T10:26:44.155Z,20.12
2022-10-30T10:33:07.174Z,20.46
2022-10-30T10:39:27.161Z,20.79
2022-10-30T10:45:50.148Z,21.17
2022-10-30T10:52:10.226Z,21.48
2022-10-30T10:58:33.150Z,21.81
2022-10-30T11:04:53.141Z,22.12
2022-10-30T11:11:16.190Z,22.31
2022-10-30T11:17:36.150Z,22.51
2022-10-30T11:23:59.218Z,22.81
2022-10-30T11:30:19.189Z,23.08
2022-10-30T11:36:42.156Z,23.18
2022-10-30T11:43:02.568Z,23.19
2022-10-30T11:49:25.175Z,23.3
2022-10-30T11:55:45.196Z,23.5
2022-10-30T12:02:08.322Z,23.83
2022-10-30T12:08:28.170Z,24.15
2022-10-30T12:14:51.185Z,24.19
2022-10-30T12:21:11.151Z,24.25
2022-10-30T12:27:34.204Z,24.35
2022-10-30T12:33:54.155Z,24.38
2022-10-30T12:40:17.220Z,24.4
2022-10-30T12:46:37.200Z,24.23
2022-10-30T12:53:00.557Z,24.05
2022-10-30T12:59:20.199Z,23.91
2022-10-30T13:05:43.221Z,23.81
2022-10-30T13:12:03.155Z,23.75
2022-10-30T13:18:26.190Z,23.66
2022-10-30T13:24:46.172Z,23.48
2022-10-30T13:31:09.181Z,23.28
2022-10-30T13:37:29.169Z,23.13
2022-10-30T13:43:52.179Z,22.95
2022-10-30T13:50:12.181Z,22.79
2022-10-30T13:56:35.158Z,22.71
2022-10-30T14:02:55.294Z,22.63
2022-10-30T14:09:18.169Z,22.43
2022-10-30T14:15:38.149Z,22.23
2022-10-30T14:22:01.216Z,22.13
2022-10-30T14:28:21.148Z,21.96
2022-10-30T14:34:44.178Z,21.76
2022-10-30T14:41:05.159Z,21.58
2022-10-30T14:47:27.160Z,21.35
2022-10-30T15:04:53.235Z,20.83
2022-10-30T15:11:18.093Z,20.53
2022-10-30T15:17:36.193Z,20.25
2022-10-30T15:23:59.181Z,20.04
2022-10-30T15:30:19.141Z,19.85
2022-10-30T15:36:42.193Z,19.64
2022-10-30T15:43:02.467Z,19.49
2022-10-30T15:49:25.146Z,19.3
2022-10-30T15:55:45.165Z,19.13
2022-10-30T16:02:08.384Z,18.93
2022-10-30T16:08:28.309Z,18.65
2022-10-30T16:14:51.166Z,18.34
2022-10-30T16:21:11.173Z,18.09
2022-10-30T16:27:34.183Z,17.87
2022-10-30T16:33:54.159Z,17.7
2022-10-30T16:40:17.205Z,17.48
2022-10-30T16:46:37.151Z,17.25
2022-10-30T16:53:00.592Z,17.08
2022-10-30T16:59:20.186Z,16.95
2022-10-30T17:05:43.162Z,16.75
2022-10-30T17:12:03.181Z,16.6
2022-10-30T17:18:26.171Z,16.5
2022-10-30T17:24:46.218Z,16.4
2022-10-30T17:31:09.172Z,16.27
2022-10-30T17:37:29.176Z,16.16
2022-10-30T17:43:52.179Z,16.01
2022-10-30T17:50:12.177Z,15.88
2022-10-30T17:56:35.181Z,15.75
2022-10-30T18:02:55.179Z,15.62
2022-10-30T18:09:18.137Z,15.5
2022-10-30T18:15:38.200Z,15.36
2022-10-30T18:22:01.148Z,15.24
2022-10-30T18:28:21.141Z,15.16
2022-10-30T18:34:44.480Z,15.05
2022-10-30T18:41:04.160Z,14.91
2022-10-30T18:47:27.236Z,14.81
2022-10-30T18:53:47.182Z,14.66
2022-10-30T19:00:10.202Z,14.51
2022-10-30T19:06:30.155Z,14.42
2022-10-30T19:13:12.799Z,14.38
2022-10-30T19:19:13.179Z,14.33
2022-10-30T19:25:36.143Z,14.28
2022-10-30T19:31:56.211Z,14.26
2022-10-30T19:38:19.130Z,14.22
2022-10-30T19:44:39.169Z,14.16
2022-10-30T19:51:02.356Z,14.06
2022-10-30T19:57:22.199Z,13.98
2022-10-30T20:03:45.207Z,13.88
2022-10-30T20:10:05.240Z,13.78
2022-10-30T20:25:21.359Z,13.64
2022-10-30T20:31:41.153Z,13.58
2022-10-30T20:38:04.197Z,13.48
2022-10-30T20:44:24.496Z,13.43
2022-10-30T20:50:50.604Z,13.37
2022-10-30T20:57:07.210Z,13.38
2022-10-30T21:03:30.293Z,13.38
2022-10-30T21:09:50.207Z,13.33
2022-10-30T21:16:13.170Z,13.29
2022-10-30T21:22:33.186Z,13.26
2022-10-30T21:28:56.217Z,13.17
2022-10-30T21:35:16.147Z,13.08
2022-10-30T21:41:39.205Z,13.02
2022-10-30T21:47:59.145Z,12.97
2022-10-30T21:54:22.169Z,12.97
2022-10-30T22:19:53.196Z,12.91
2022-10-30T22:26:13.174Z,12.83
2022-10-30T22:32:36.180Z,12.73
2022-10-30T22:38:56.173Z,12.69
2022-10-30T22:45:19.162Z,12.59
2022-10-30T22:51:39.234Z,12.55
2022-10-30T22:58:02.758Z,12.44
2022-10-30T23:04:22.180Z,12.38
2022-10-30T23:10:45.174Z,12.33
2022-10-30T23:17:05.261Z,12.3
2022-10-30T23:23:28.161Z,12.27
2022-10-30T23:29:48.158Z,12.19
2022-10-30T23:36:11.195Z,12.16
2022-10-30T23:42:31.150Z,12.08
2022-10-30T23:48:54.180Z,12.05
2022-10-30T23:55:14.179Z,12.04
